MSC Ines — 3EFZ3 — position and weather

sailwx.info

Track history (hours):
 
Tides and Currents Weather Stations Pressure Air Temp Water Temp Dewpoint Dewpoint Depression Visibility Wind Speed Wind Dir Waves Ship Positions

MSC Ines

Last reported at 2016-Jul-11 15:33 UTC. Time now 2016-Jul-27 15:25 UTC.
Position S 31°24' E 016°16'.
Warning: this ship's position is 15 days out of date.

Length 349 m; draft 10.7 m.

Type: Ship (hazmat cat A). MMSI: 356112000.

Date/timePositionNaut miles runAvg speedWind from/ knotsBaromVisibWave heightAir tempDewpointWater temp
2016-Jul-11 15:33S 31°24' E 016°16'15615.6
2016-Jul-11 05:33S 33°48' E 017°27'1414.0
2016-Jul-11 04:32S 34°01' E 017°34'4213.4
2016-Jul-11 01:25S 34°33' E 018°06'67913.8
2016-Jul-09 00:14S 30°43' E 030°45'912.8
2016-Jul-08 23:33S 30°36' E 030°49'1514.7
2016-Jul-08 22:34S 30°23' E 030°57'1514.9
2016-Jul-08 21:34S 30°09' E 031°05'1312.9
2016-Jul-08 20:34S 29°57' E 031°08'7 6.6
2016-Jul-08 19:33S 29°53' E 031°02'0 0.4
2016-Jul-08 18:33S 29°53' E 031°01'0 0.0
2016-Jul-08 17:33S 29°53' E 031°01'0 0.0
2016-Jul-08 16:33S 29°53' E 031°01'0 0.0
2016-Jul-08 15:33S 29°53' E 031°01'0 0.0
2016-Jul-08 14:33S 29°53' E 031°01'0 0.0
2016-Jul-08 13:30S 29°53' E 031°01'0 0.0
2016-Jul-08 12:33S 29°53' E 031°01'0 0.0
2016-Jul-08 11:33S 29°53' E 031°01'0 0.0
2016-Jul-08 10:33S 29°53' E 031°01'0 0.0
2016-Jul-08 09:33S 29°53' E 031°01'0 0.0
2016-Jul-08 08:30S 29°53' E 031°01'0 0.0
2016-Jul-08 07:33S 29°53' E 031°01'0 0.0
2016-Jul-08 06:33S 29°53' E 031°01'0 0.0
2016-Jul-08 04:33S 29°53' E 031°01'0 0.0
2016-Jul-08 03:33S 29°53' E 031°01'0 0.0
2016-Jul-08 02:33S 29°53' E 031°01'0 0.0
2016-Jul-08 01:33S 29°53' E 031°01'0 0.0
2016-Jul-08 00:33S 29°53' E 031°01'0 0.0
2016-Jul-07 23:33S 29°53' E 031°01'0 0.0
2016-Jul-07 22:33S 29°53' E 031°01'0 0.0
2016-Jul-07 21:33S 29°53' E 031°01'0 0.0
2016-Jul-07 20:33S 29°53' E 031°01'0 0.0
2016-Jul-07 19:33S 29°53' E 031°01'0 0.0
2016-Jul-07 18:33S 29°53' E 031°01'0 0.0
2016-Jul-07 17:33S 29°53' E 031°01'0 0.0
2016-Jul-07 16:33S 29°53' E 031°01'0 0.0
2016-Jul-07 15:30S 29°53' E 031°01'0 0.0
2016-Jul-07 14:33S 29°53' E 031°01'0 0.0
2016-Jul-07 13:33S 29°53' E 031°01'0 0.0
2016-Jul-07 12:33S 29°53' E 031°01'0 0.0
2016-Jul-07 11:33S 29°53' E 031°01'0 0.0
2016-Jul-07 10:33S 29°53' E 031°01'0 0.0
2016-Jul-07 09:33S 29°53' E 031°01'0 0.0
2016-Jul-07 08:33S 29°53' E 031°01'0 0.0
2016-Jul-07 07:24S 29°53' E 031°01'0 0.0
2016-Jul-07 06:33S 29°53' E 031°01'0 0.0
2016-Jul-07 05:30S 29°53' E 031°01'0 0.0
2016-Jul-07 04:33S 29°53' E 031°01'0 0.0
2016-Jul-07 03:33S 29°53' E 031°01'0 0.0
2016-Jul-07 02:33S 29°53' E 031°01'0 0.4
2016-Jul-07 01:33S 29°53' E 031°02'5 4.7
2016-Jul-07 00:33S 29°49' E 031°05'4 3.9
2016-Jul-06 23:33S 29°46' E 031°08'1 0.8
2016-Jul-06 22:32S 29°46' E 031°09'0 0.0
2016-Jul-06 21:33S 29°46' E 031°09'0 0.0
2016-Jul-06 20:31S 29°46' E 031°09'0 0.1
2016-Jul-06 19:33S 29°46' E 031°09'0 0.1
2016-Jul-06 18:33S 29°46' E 031°09'0 0.0
2016-Jul-06 17:32S 29°46' E 031°09'0 0.1
2016-Jul-06 16:29S 29°46' E 031°09'0 0.0
2016-Jul-06 15:32S 29°46' E 031°09'0 0.1
2016-Jul-06 14:32S 29°46' E 031°09'0 0.1
2016-Jul-06 13:32S 29°46' E 031°09'0 0.1
2016-Jul-06 12:32S 29°46' E 031°09'0 0.0
2016-Jul-06 11:32S 29°46' E 031°09'0 0.0
2016-Jul-06 10:32S 29°46' E 031°09'0 0.0
2016-Jul-06 09:31S 29°46' E 031°09'0 0.0
2016-Jul-06 08:31S 29°46' E 031°09'0 0.3
2016-Jul-06 07:28S 29°46' E 031°09'0 0.2
2016-Jul-06 06:31S 29°46' E 031°09'0 0.0
2016-Jul-06 05:31S 29°46' E 031°09'0 0.0
2016-Jul-06 04:28S 29°46' E 031°09'0 0.0
2016-Jul-06 03:31S 29°46' E 031°09'0 0.0
2016-Jul-06 02:31S 29°46' E 031°09'0 0.0
2016-Jul-06 01:31S 29°46' E 031°09'0 0.0
2016-Jul-06 00:31S 29°46' E 031°09'3 3.3
2016-Jul-05 23:33S 29°49' E 031°11'1010.4
2016-Jul-05 22:33S 29°46' E 031°23'1312.6
2016-Jul-05 21:33S 29°43' E 031°37'1313.3
2016-Jul-05 20:33S 29°40' E 031°52'1312.9
2016-Jul-05 19:33S 29°37' E 032°06'1512.9
2016-Jul-05 18:25S 29°33' E 032°22'  
Track history (hours):
 
Tides and Currents Weather Stations Pressure Air Temp Water Temp Dewpoint Dewpoint Depression Visibility Wind Speed Wind Dir Waves Ship Positions

MSC Ines

Last reported at 2016-Jul-11 15:33 UTC. Time now 2016-Jul-27 15:25 UTC.
Position S 31°24' E 016°16'.
Warning: this ship's position is 15 days out of date.

Length 349 m; draft 10.7 m.

Type: Ship (hazmat cat A). MMSI: 356112000.

Date/timePositionNaut miles runAvg speedWind from/ knotsBaromVisibWave heightAir tempDewpointWater temp
2016-Jul-11 15:33S 31°24' E 016°16'15615.6
2016-Jul-11 05:33S 33°48' E 017°27'1414.0
2016-Jul-11 04:32S 34°01' E 017°34'4213.4
2016-Jul-11 01:25S 34°33' E 018°06'67913.8
2016-Jul-09 00:14S 30°43' E 030°45'912.8
2016-Jul-08 23:33S 30°36' E 030°49'1514.7
2016-Jul-08 22:34S 30°23' E 030°57'1514.9
2016-Jul-08 21:34S 30°09' E 031°05'1312.9
2016-Jul-08 20:34S 29°57' E 031°08'7 6.6
2016-Jul-08 19:33S 29°53' E 031°02'0 0.4
2016-Jul-08 18:33S 29°53' E 031°01'0 0.0
2016-Jul-08 17:33S 29°53' E 031°01'0 0.0
2016-Jul-08 16:33S 29°53' E 031°01'0 0.0
2016-Jul-08 15:33S 29°53' E 031°01'0 0.0
2016-Jul-08 14:33S 29°53' E 031°01'0 0.0
2016-Jul-08 13:30S 29°53' E 031°01'0 0.0
2016-Jul-08 12:33S 29°53' E 031°01'0 0.0
2016-Jul-08 11:33S 29°53' E 031°01'0 0.0
2016-Jul-08 10:33S 29°53' E 031°01'0 0.0
2016-Jul-08 09:33S 29°53' E 031°01'0 0.0
2016-Jul-08 08:30S 29°53' E 031°01'0 0.0
2016-Jul-08 07:33S 29°53' E 031°01'0 0.0
2016-Jul-08 06:33S 29°53' E 031°01'0 0.0
2016-Jul-08 04:33S 29°53' E 031°01'0 0.0
2016-Jul-08 03:33S 29°53' E 031°01'0 0.0
2016-Jul-08 02:33S 29°53' E 031°01'0 0.0
2016-Jul-08 01:33S 29°53' E 031°01'0 0.0
2016-Jul-08 00:33S 29°53' E 031°01'0 0.0
2016-Jul-07 23:33S 29°53' E 031°01'0 0.0
2016-Jul-07 22:33S 29°53' E 031°01'0 0.0
2016-Jul-07 21:33S 29°53' E 031°01'0 0.0
2016-Jul-07 20:33S 29°53' E 031°01'0 0.0
2016-Jul-07 19:33S 29°53' E 031°01'0 0.0
2016-Jul-07 18:33S 29°53' E 031°01'0 0.0
2016-Jul-07 17:33S 29°53' E 031°01'0 0.0
2016-Jul-07 16:33S 29°53' E 031°01'0 0.0
2016-Jul-07 15:30S 29°53' E 031°01'0 0.0
2016-Jul-07 14:33S 29°53' E 031°01'0 0.0
2016-Jul-07 13:33S 29°53' E 031°01'0 0.0
2016-Jul-07 12:33S 29°53' E 031°01'0 0.0
2016-Jul-07 11:33S 29°53' E 031°01'0 0.0
2016-Jul-07 10:33S 29°53' E 031°01'0 0.0
2016-Jul-07 09:33S 29°53' E 031°01'0 0.0
2016-Jul-07 08:33S 29°53' E 031°01'0 0.0
2016-Jul-07 07:24S 29°53' E 031°01'0 0.0
2016-Jul-07 06:33S 29°53' E 031°01'0 0.0
2016-Jul-07 05:30S 29°53' E 031°01'0 0.0
2016-Jul-07 04:33S 29°53' E 031°01'0 0.0
2016-Jul-07 03:33S 29°53' E 031°01'0 0.0
2016-Jul-07 02:33S 29°53' E 031°01'0 0.4
2016-Jul-07 01:33S 29°53' E 031°02'5 4.7
2016-Jul-07 00:33S 29°49' E 031°05'4 3.9
2016-Jul-06 23:33S 29°46' E 031°08'1 0.8
2016-Jul-06 22:32S 29°46' E 031°09'0 0.0
2016-Jul-06 21:33S 29°46' E 031°09'0 0.0
2016-Jul-06 20:31S 29°46' E 031°09'0 0.1
2016-Jul-06 19:33S 29°46' E 031°09'0 0.1
2016-Jul-06 18:33S 29°46' E 031°09'0 0.0
2016-Jul-06 17:32S 29°46' E 031°09'0 0.1
2016-Jul-06 16:29S 29°46' E 031°09'0 0.0
2016-Jul-06 15:32S 29°46' E 031°09'0 0.1
2016-Jul-06 14:32S 29°46' E 031°09'0 0.1
2016-Jul-06 13:32S 29°46' E 031°09'0 0.1
2016-Jul-06 12:32S 29°46' E 031°09'0 0.0
2016-Jul-06 11:32S 29°46' E 031°09'0 0.0
2016-Jul-06 10:32S 29°46' E 031°09'0 0.0
2016-Jul-06 09:31S 29°46' E 031°09'0 0.0
2016-Jul-06 08:31S 29°46' E 031°09'0 0.3
2016-Jul-06 07:28S 29°46' E 031°09'0 0.2
2016-Jul-06 06:31S 29°46' E 031°09'0 0.0
2016-Jul-06 05:31S 29°46' E 031°09'0 0.0
2016-Jul-06 04:28S 29°46' E 031°09'0 0.0
2016-Jul-06 03:31S 29°46' E 031°09'0 0.0
2016-Jul-06 02:31S 29°46' E 031°09'0 0.0
2016-Jul-06 01:31S 29°46' E 031°09'0 0.0
2016-Jul-06 00:31S 29°46' E 031°09'3 3.3
2016-Jul-05 23:33S 29°49' E 031°11'1010.4
2016-Jul-05 22:33S 29°46' E 031°23'1312.6
2016-Jul-05 21:33S 29°43' E 031°37'1313.3
2016-Jul-05 20:33S 29°40' E 031°52'1312.9
2016-Jul-05 19:33S 29°37' E 032°06'1512.9
2016-Jul-05 18:25S 29°33' E 032°22'  

Dump ship's entire track history